sensor_id;sensor_type;location;lat;lon;timestamp;temperature;humidity
15916;DHT22;8057;47.830;-3.870;2023-02-28T00:00:29;2.40;99.90
15916;DHT22;8057;47.830;-3.870;2023-02-28T00:04:54;2.40;99.90
15916;DHT22;8057;47.830;-3.870;2023-02-28T00:09:26;2.20;99.90
15916;DHT22;8057;47.830;-3.870;2023-02-28T00:14:02;2.20;99.90
15916;DHT22;8057;47.830;-3.870;2023-02-28T00:18:34;2.30;99.90
15916;DHT22;8057;47.830;-3.870;2023-02-28T00:23:04;2.30;99.90
15916;DHT22;8057;47.830;-3.870;2023-02-28T00:27:16;2.20;99.90
15916;DHT22;8057;47.830;-3.870;2023-02-28T00:36:28;2.10;99.90
15916;DHT22;8057;47.830;-3.870;2023-02-28T00:41:01;2.10;99.90
15916;DHT22;8057;47.830;-3.870;2023-02-28T00:45:39;2.10;99.90
15916;DHT22;8057;47.830;-3.870;2023-02-28T00:50:08;2.10;99.90
15916;DHT22;8057;47.830;-3.870;2023-02-28T00:54:41;2.00;99.90
15916;DHT22;8057;47.830;-3.870;2023-02-28T00:58:55;1.80;99.90
15916;DHT22;8057;47.830;-3.870;2023-02-28T01:03:34;1.80;99.90
15916;DHT22;8057;47.830;-3.870;2023-02-28T01:08:02;1.90;99.90
15916;DHT22;8057;47.830;-3.870;2023-02-28T01:17:26;1.90;99.90
15916;DHT22;8057;47.830;-3.870;2023-02-28T01:22:10;1.90;99.90
15916;DHT22;8057;47.830;-3.870;2023-02-28T01:26:29;1.90;99.90
15916;DHT22;8057;47.830;-3.870;2023-02-28T01:30:46;1.90;99.90
15916;DHT22;8057;47.830;-3.870;2023-02-28T01:35:19;1.90;99.90
15916;DHT22;8057;47.830;-3.870;2023-02-28T01:39:34;1.90;99.90
15916;DHT22;8057;47.830;-3.870;2023-02-28T01:44:02;1.70;99.90
15916;DHT22;8057;47.830;-3.870;2023-02-28T01:48:22;1.70;99.90
15916;DHT22;8057;47.830;-3.870;2023-02-28T01:52:53;1.70;99.90
15916;DHT22;8057;47.830;-3.870;2023-02-28T01:57:10;1.80;99.90
15916;DHT22;8057;47.830;-3.870;2023-02-28T02:01:33;1.80;99.90
15916;DHT22;8057;47.830;-3.870;2023-02-28T02:06:09;1.70;99.90
15916;DHT22;8057;47.830;-3.870;2023-02-28T02:10:50;1.70;99.90
15916;DHT22;8057;47.830;-3.870;2023-02-28T02:15:11;1.70;99.90
15916;DHT22;8057;47.830;-3.870;2023-02-28T02:24:36;1.40;99.90
15916;DHT22;8057;47.830;-3.870;2023-02-28T02:29:21;1.40;99.90
15916;DHT22;8057;47.830;-3.870;2023-02-28T02:34:11;1.20;99.90
15916;DHT22;8057;47.830;-3.870;2023-02-28T02:38:33;1.20;99.90
15916;DHT22;8057;47.830;-3.870;2023-02-28T02:42:58;1.20;99.90
15916;DHT22;8057;47.830;-3.870;2023-02-28T02:47:24;1.20;99.90
15916;DHT22;8057;47.830;-3.870;2023-02-28T02:51:53;1.20;99.90
15916;DHT22;8057;47.830;-3.870;2023-02-28T02:56:24;1.20;99.90
15916;DHT22;8057;47.830;-3.870;2023-02-28T03:00:48;1.20;99.90
15916;DHT22;8057;47.830;-3.870;2023-02-28T03:05:16;1.20;99.90
15916;DHT22;8057;47.830;-3.870;2023-02-28T03:09:35;1.20;99.90
15916;DHT22;8057;47.830;-3.870;2023-02-28T03:14:23;1.10;99.90
15916;DHT22;8057;47.830;-3.870;2023-02-28T03:18:51;1.00;99.90
15916;DHT22;8057;47.830;-3.870;2023-02-28T03:23:26;1.00;99.90
15916;DHT22;8057;47.830;-3.870;2023-02-28T03:28:05;0.90;99.90
15916;DHT22;8057;47.830;-3.870;2023-02-28T03:32:32;0.80;99.90
15916;DHT22;8057;47.830;-3.870;2023-02-28T03:36:48;0.70;99.90
15916;DHT22;8057;47.830;-3.870;2023-02-28T03:41:06;0.70;99.90
15916;DHT22;8057;47.830;-3.870;2023-02-28T03:45:52;0.80;99.90
15916;DHT22;8057;47.830;-3.870;2023-02-28T03:50:20;0.80;99.90
15916;DHT22;8057;47.830;-3.870;2023-02-28T03:54:50;0.90;99.90
15916;DHT22;8057;47.830;-3.870;2023-02-28T03:59:10;0.80;99.90
15916;DHT22;8057;47.830;-3.870;2023-02-28T04:03:31;1.00;99.90
15916;DHT22;8057;47.830;-3.870;2023-02-28T04:08:04;1.00;99.90
15916;DHT22;8057;47.830;-3.870;2023-02-28T04:12:29;1.00;99.90
15916;DHT22;8057;47.830;-3.870;2023-02-28T04:16:57;1.10;99.90
15916;DHT22;8057;47.830;-3.870;2023-02-28T04:21:30;1.00;99.90
15916;DHT22;8057;47.830;-3.870;2023-02-28T04:26:12;0.90;99.90
15916;DHT22;8057;47.830;-3.870;2023-02-28T04:30:29;0.90;99.90
15916;DHT22;8057;47.830;-3.870;2023-02-28T04:34:53;0.90;99.90
15916;DHT22;8057;47.830;-3.870;2023-02-28T04:39:13;0.70;99.90
15916;DHT22;8057;47.830;-3.870;2023-02-28T04:43:34;0.70;99.90
15916;DHT22;8057;47.830;-3.870;2023-02-28T04:47:51;0.70;99.90
15916;DHT22;8057;47.830;-3.870;2023-02-28T04:52:09;0.80;99.90
15916;DHT22;8057;47.830;-3.870;2023-02-28T04:56:24;0.90;99.90
15916;DHT22;8057;47.830;-3.870;2023-02-28T05:00:48;0.90;99.90
15916;DHT22;8057;47.830;-3.870;2023-02-28T05:05:14;0.90;99.90
15916;DHT22;8057;47.830;-3.870;2023-02-28T05:09:27;1.00;99.90
15916;DHT22;8057;47.830;-3.870;2023-02-28T05:13:57;1.20;99.90
15916;DHT22;8057;47.830;-3.870;2023-02-28T05:18:13;1.30;99.90
15916;DHT22;8057;47.830;-3.870;2023-02-28T05:22:29;1.40;99.90
15916;DHT22;8057;47.830;-3.870;2023-02-28T05:26:54;1.40;99.90
15916;DHT22;8057;47.830;-3.870;2023-02-28T05:31:07;1.50;99.90
15916;DHT22;8057;47.830;-3.870;2023-02-28T05:35:23;1.60;99.90
15916;DHT22;8057;47.830;-3.870;2023-02-28T05:39:36;1.70;99.90
15916;DHT22;8057;47.830;-3.870;2023-02-28T05:43:50;1.70;99.90
15916;DHT22;8057;47.830;-3.870;2023-02-28T05:48:07;1.70;99.90
15916;DHT22;8057;47.830;-3.870;2023-02-28T05:52:22;1.80;99.90
15916;DHT22;8057;47.830;-3.870;2023-02-28T05:56:59;1.80;99.90
15916;DHT22;8057;47.830;-3.870;2023-02-28T06:01:37;1.80;99.90
15916;DHT22;8057;47.830;-3.870;2023-02-28T06:06:00;1.80;99.90
15916;DHT22;8057;47.830;-3.870;2023-02-28T06:10:13;1.70;99.90
15916;DHT22;8057;47.830;-3.870;2023-02-28T06:14:22;1.70;99.90
15916;DHT22;8057;47.830;-3.870;2023-02-28T06:18:36;1.70;99.90
15916;DHT22;8057;47.830;-3.870;2023-02-28T06:22:48;1.60;99.90
15916;DHT22;8057;47.830;-3.870;2023-02-28T06:27:03;1.60;99.90
15916;DHT22;8057;47.830;-3.870;2023-02-28T06:31:16;1.60;99.90
15916;DHT22;8057;47.830;-3.870;2023-02-28T06:35:32;1.60;99.90
15916;DHT22;8057;47.830;-3.870;2023-02-28T06:39:44;1.50;99.90
15916;DHT22;8057;47.830;-3.870;2023-02-28T06:43:57;1.50;99.90
15916;DHT22;8057;47.830;-3.870;2023-02-28T06:48:07;1.40;99.90
15916;DHT22;8057;47.830;-3.870;2023-02-28T06:52:18;1.40;99.90
15916;DHT22;8057;47.830;-3.870;2023-02-28T06:56:33;1.30;99.90
15916;DHT22;8057;47.830;-3.870;2023-02-28T07:00:44;1.20;99.90
15916;DHT22;8057;47.830;-3.870;2023-02-28T07:04:54;1.00;99.90
15916;DHT22;8057;47.830;-3.870;2023-02-28T07:13:16;0.90;99.90
15916;DHT22;8057;47.830;-3.870;2023-02-28T07:17:28;1.00;99.90
15916;DHT22;8057;47.830;-3.870;2023-02-28T07:21:41;1.00;99.90
15916;DHT22;8057;47.830;-3.870;2023-02-28T07:25:52;1.00;99.90
15916;DHT22;8057;47.830;-3.870;2023-02-28T07:30:08;1.00;99.90
15916;DHT22;8057;47.830;-3.870;2023-02-28T07:34:21;1.00;99.90
15916;DHT22;8057;47.830;-3.870;2023-02-28T07:38:34;1.00;99.90
15916;DHT22;8057;47.830;-3.870;2023-02-28T07:42:59;1.10;99.90
15916;DHT22;8057;47.830;-3.870;2023-02-28T07:47:13;1.10;99.90
15916;DHT22;8057;47.830;-3.870;2023-02-28T07:51:23;1.20;99.90
15916;DHT22;8057;47.830;-3.870;2023-02-28T07:55:32;1.30;99.90
15916;DHT22;8057;47.830;-3.870;2023-02-28T07:59:42;1.40;99.90
15916;DHT22;8057;47.830;-3.870;2023-02-28T08:03:54;1.70;99.90
15916;DHT22;8057;47.830;-3.870;2023-02-28T08:08:04;2.00;99.90
15916;DHT22;8057;47.830;-3.870;2023-02-28T08:12:14;2.30;99.90
15916;DHT22;8057;47.830;-3.870;2023-02-28T08:16:23;2.60;99.90
15916;DHT22;8057;47.830;-3.870;2023-02-28T08:20:36;2.90;99.90
15916;DHT22;8057;47.830;-3.870;2023-02-28T08:24:46;3.10;99.90
15916;DHT22;8057;47.830;-3.870;2023-02-28T08:28:57;3.30;99.90
15916;DHT22;8057;47.830;-3.870;2023-02-28T08:33:08;3.40;99.90
15916;DHT22;8057;47.830;-3.870;2023-02-28T08:37:20;3.50;99.90
15916;DHT22;8057;47.830;-3.870;2023-02-28T08:50:09;3.80;99.90
15916;DHT22;8057;47.830;-3.870;2023-02-28T08:54:24;3.90;99.90
15916;DHT22;8057;47.830;-3.870;2023-02-28T09:03:22;4.50;99.90
15916;DHT22;8057;47.830;-3.870;2023-02-28T09:07:36;4.60;99.90
15916;DHT22;8057;47.830;-3.870;2023-02-28T09:21:03;5.20;99.90
15916;DHT22;8057;47.830;-3.870;2023-02-28T09:25:17;5.40;99.90
15916;DHT22;8057;47.830;-3.870;2023-02-28T09:29:40;5.60;99.90
15916;DHT22;8057;47.830;-3.870;2023-02-28T09:33:55;5.80;99.90
15916;DHT22;8057;47.830;-3.870;2023-02-28T09:38:06;5.80;99.90
15916;DHT22;8057;47.830;-3.870;2023-02-28T09:42:22;6.10;99.90
15916;DHT22;8057;47.830;-3.870;2023-02-28T09:46:38;6.30;99.90
15916;DHT22;8057;47.830;-3.870;2023-02-28T09:50:51;6.60;99.90
15916;DHT22;8057;47.830;-3.870;2023-02-28T09:55:20;6.70;99.90
15916;DHT22;8057;47.830;-3.870;2023-02-28T10:04:18;6.80;99.90
15916;DHT22;8057;47.830;-3.870;2023-02-28T10:08:40;6.90;99.90
15916;DHT22;8057;47.830;-3.870;2023-02-28T10:13:05;7.20;99.90
15916;DHT22;8057;47.830;-3.870;2023-02-28T10:17:20;7.40;99.90
15916;DHT22;8057;47.830;-3.870;2023-02-28T10:21:34;7.40;99.90
15916;DHT22;8057;47.830;-3.870;2023-02-28T10:26:03;7.30;99.90
15916;DHT22;8057;47.830;-3.870;2023-02-28T10:30:40;7.30;99.90
15916;DHT22;8057;47.830;-3.870;2023-02-28T10:34:52;7.50;99.90
15916;DHT22;8057;47.830;-3.870;2023-02-28T10:39:01;7.70;99.90
15916;DHT22;8057;47.830;-3.870;2023-02-28T10:43:22;7.90;99.90
15916;DHT22;8057;47.830;-3.870;2023-02-28T10:47:40;8.10;99.90
15916;DHT22;8057;47.830;-3.870;2023-02-28T10:51:55;8.10;99.90
15916;DHT22;8057;47.830;-3.870;2023-02-28T10:56:16;8.10;99.90
15916;DHT22;8057;47.830;-3.870;2023-02-28T11:00:34;8.00;99.90
15916;DHT22;8057;47.830;-3.870;2023-02-28T11:04:46;7.60;99.90
15916;DHT22;8057;47.830;-3.870;2023-02-28T11:09:22;7.50;99.90
15916;DHT22;8057;47.830;-3.870;2023-02-28T11:13:35;7.80;99.90
15916;DHT22;8057;47.830;-3.870;2023-02-28T11:17:54;8.30;99.90
15916;DHT22;8057;47.830;-3.870;2023-02-28T11:22:05;8.50;99.90
15916;DHT22;8057;47.830;-3.870;2023-02-28T11:26:17;8.70;99.90
15916;DHT22;8057;47.830;-3.870;2023-02-28T11:30:45;8.90;99.90
15916;DHT22;8057;47.830;-3.870;2023-02-28T11:35:04;9.30;99.90
15916;DHT22;8057;47.830;-3.870;2023-02-28T11:48:29;9.80;99.90
15916;DHT22;8057;47.830;-3.870;2023-02-28T11:57:19;10.10;99.90
15916;DHT22;8057;47.830;-3.870;2023-02-28T12:06:03;9.70;99.90
15916;DHT22;8057;47.830;-3.870;2023-02-28T12:10:22;9.80;99.90
15916;DHT22;8057;47.830;-3.870;2023-02-28T12:19:28;10.10;99.90
15916;DHT22;8057;47.830;-3.870;2023-02-28T12:24:00;9.60;99.90
15916;DHT22;8057;47.830;-3.870;2023-02-28T12:28:51;9.10;99.90
15916;DHT22;8057;47.830;-3.870;2023-02-28T12:33:05;9.20;99.90
15916;DHT22;8057;47.830;-3.870;2023-02-28T12:37:27;9.50;99.90
15916;DHT22;8057;47.830;-3.870;2023-02-28T12:41:42;9.70;99.90
15916;DHT22;8057;47.830;-3.870;2023-02-28T12:46:12;9.80;99.90
15916;DHT22;8057;47.830;-3.870;2023-02-28T12:59:58;10.40;99.90
15916;DHT22;8057;47.830;-3.870;2023-02-28T13:09:03;10.10;99.90
15916;DHT22;8057;47.830;-3.870;2023-02-28T13:13:16;9.60;99.90
15916;DHT22;8057;47.830;-3.870;2023-02-28T13:17:27;9.70;99.90
15916;DHT22;8057;47.830;-3.870;2023-02-28T13:21:43;9.80;99.90
15916;DHT22;8057;47.830;-3.870;2023-02-28T13:25:56;9.90;99.90
15916;DHT22;8057;47.830;-3.870;2023-02-28T13:39:51;10.60;99.90
15916;DHT22;8057;47.830;-3.870;2023-02-28T13:44:03;10.30;99.90
15916;DHT22;8057;47.830;-3.870;2023-02-28T13:52:44;9.70;99.90
15916;DHT22;8057;47.830;-3.870;2023-02-28T13:57:17;10.10;99.90
15916;DHT22;8057;47.830;-3.870;2023-02-28T14:01:51;10.40;99.90
15916;DHT22;8057;47.830;-3.870;2023-02-28T14:20:12;11.10;99.90
15916;DHT22;8057;47.830;-3.870;2023-02-28T14:33:24;10.00;99.90
15916;DHT22;8057;47.830;-3.870;2023-02-28T14:37:39;10.40;99.90
15916;DHT22;8057;47.830;-3.870;2023-02-28T14:41:53;10.40;99.90
15916;DHT22;8057;47.830;-3.870;2023-02-28T14:46:06;10.50;99.90
15916;DHT22;8057;47.830;-3.870;2023-02-28T14:50:35;10.40;99.90
15916;DHT22;8057;47.830;-3.870;2023-02-28T14:54:55;10.80;99.90
15916;DHT22;8057;47.830;-3.870;2023-02-28T14:59:26;10.80;99.90
15916;DHT22;8057;47.830;-3.870;2023-02-28T15:03:40;9.80;99.90
15916;DHT22;8057;47.830;-3.870;2023-02-28T15:12:30;9.90;99.90
15916;DHT22;8057;47.830;-3.870;2023-02-28T15:16:42;9.80;99.90
15916;DHT22;8057;47.830;-3.870;2023-02-28T15:25:26;9.60;99.90
15916;DHT22;8057;47.830;-3.870;2023-02-28T15:29:44;9.60;99.90
15916;DHT22;8057;47.830;-3.870;2023-02-28T15:34:03;9.60;99.90
15916;DHT22;8057;47.830;-3.870;2023-02-28T15:38:15;9.30;99.90
15916;DHT22;8057;47.830;-3.870;2023-02-28T15:42:28;9.20;99.90
15916;DHT22;8057;47.830;-3.870;2023-02-28T15:46:53;9.20;99.90
15916;DHT22;8057;47.830;-3.870;2023-02-28T15:51:07;9.50;99.90
15916;DHT22;8057;47.830;-3.870;2023-02-28T15:55:19;9.50;99.90
15916;DHT22;8057;47.830;-3.870;2023-02-28T15:59:31;9.60;99.90
15916;DHT22;8057;47.830;-3.870;2023-02-28T16:03:45;9.50;99.90
15916;DHT22;8057;47.830;-3.870;2023-02-28T16:07:55;9.30;99.90
15916;DHT22;8057;47.830;-3.870;2023-02-28T16:12:05;9.00;99.90
15916;DHT22;8057;47.830;-3.870;2023-02-28T16:16:22;8.90;99.90
15916;DHT22;8057;47.830;-3.870;2023-02-28T16:20:34;8.90;99.90
15916;DHT22;8057;47.830;-3.870;2023-02-28T16:24:45;8.90;99.90
15916;DHT22;8057;47.830;-3.870;2023-02-28T16:28:57;8.80;99.90
15916;DHT22;8057;47.830;-3.870;2023-02-28T16:33:08;8.70;99.90
15916;DHT22;8057;47.830;-3.870;2023-02-28T16:37:19;8.70;99.90
15916;DHT22;8057;47.830;-3.870;2023-02-28T16:41:29;8.80;99.90
15916;DHT22;8057;47.830;-3.870;2023-02-28T16:45:40;8.90;99.90
15916;DHT22;8057;47.830;-3.870;2023-02-28T16:49:50;8.80;99.90
15916;DHT22;8057;47.830;-3.870;2023-02-28T16:54:02;8.70;99.90
15916;DHT22;8057;47.830;-3.870;2023-02-28T16:58:14;8.50;99.90
15916;DHT22;8057;47.830;-3.870;2023-02-28T17:02:25;7.70;99.90
15916;DHT22;8057;47.830;-3.870;2023-02-28T17:06:34;7.40;99.90
15916;DHT22;8057;47.830;-3.870;2023-02-28T17:10:47;7.20;99.90
15916;DHT22;8057;47.830;-3.870;2023-02-28T17:47:54;7.00;99.90
15916;DHT22;8057;47.830;-3.870;2023-02-28T17:56:42;7.00;99.90
15916;DHT22;8057;47.830;-3.870;2023-02-28T20:03:49;6.10;99.90
15916;DHT22;8057;47.830;-3.870;2023-02-28T20:13:18;6.30;99.90
15916;DHT22;8057;47.830;-3.870;2023-02-28T21:09:18;6.30;99.90
15916;DHT22;8057;47.830;-3.870;2023-02-28T21:23:00;6.40;99.90
15916;DHT22;8057;47.830;-3.870;2023-02-28T21:27:42;6.40;99.90
15916;DHT22;8057;47.830;-3.870;2023-02-28T21:32:49;6.40;99.90
15916;DHT22;8057;47.830;-3.870;2023-02-28T21:42:07;6.30;99.90
15916;DHT22;8057;47.830;-3.870;2023-02-28T21:50:56;6.20;99.90
15916;DHT22;8057;47.830;-3.870;2023-02-28T21:55:14;6.20;99.90
15916;DHT22;8057;47.830;-3.870;2023-02-28T21:59:23;6.10;99.90
15916;DHT22;8057;47.830;-3.870;2023-02-28T22:08:16;6.10;99.90
15916;DHT22;8057;47.830;-3.870;2023-02-28T22:12:31;6.10;99.90
15916;DHT22;8057;47.830;-3.870;2023-02-28T22:16:59;6.10;99.90
15916;DHT22;8057;47.830;-3.870;2023-02-28T22:25:45;6.00;99.90
15916;DHT22;8057;47.830;-3.870;2023-02-28T22:29:56;5.90;99.90
15916;DHT22;8057;47.830;-3.870;2023-02-28T22:34:07;5.80;99.90
15916;DHT22;8057;47.830;-3.870;2023-02-28T22:38:26;5.80;99.90
15916;DHT22;8057;47.830;-3.870;2023-02-28T22:47:58;5.70;99.90
15916;DHT22;8057;47.830;-3.870;2023-02-28T23:02:49;5.50;99.90
